createdAt,value
2016-12-23T00:00:15.023Z,25.25
2016-12-23T00:01:15.029Z,25.35
2016-12-23T00:02:15.347Z,25.25
2016-12-23T00:03:15.043Z,25.25
2016-12-23T00:04:15.049Z,25.05
2016-12-23T00:05:15.055Z,25.15
2016-12-23T00:06:15.076Z,25.15
2016-12-23T00:07:15.382Z,25.35
2016-12-23T00:08:15.390Z,25.25
2016-12-23T00:09:15.396Z,25.35
2016-12-23T00:10:15.407Z,25.25
2016-12-23T00:11:15.147Z,24.96
2016-12-23T00:12:15.463Z,25.25
2016-12-23T00:13:15.435Z,24.96
2016-12-23T00:14:15.114Z,25.05
2016-12-23T00:15:15.122Z,24.96
2016-12-23T00:16:15.129Z,24.86
2016-12-23T00:17:15.137Z,24.96
2016-12-23T00:18:15.455Z,24.96
2016-12-23T00:19:15.512Z,24.96
2016-12-23T00:20:15.471Z,24.86
2016-12-23T00:21:15.477Z,25.25
2016-12-23T00:22:15.483Z,25.35
2016-12-23T00:23:15.179Z,24.96
2016-12-23T00:24:15.233Z,24.96
2016-12-23T00:25:15.239Z,25.05
2016-12-23T00:26:15.196Z,25.05
2016-12-23T00:27:15.567Z,25.05
2016-12-23T00:28:17.423Z,25.05
2016-12-23T00:29:15.530Z,24.96
2016-12-23T00:30:15.536Z,24.86
2016-12-23T00:31:15.596Z,24.96
2016-12-23T00:32:15.238Z,24.96
2016-12-23T00:33:15.557Z,25.15
2016-12-23T00:34:15.613Z,24.96
2016-12-23T00:35:15.259Z,24.96
2016-12-23T00:36:15.265Z,25.25
2016-12-23T00:37:15.272Z,25.35
2016-12-23T00:38:15.592Z,25.15
2016-12-23T00:39:15.650Z,25.15
2016-12-23T00:40:15.603Z,25.25
2016-12-23T00:41:15.299Z,25.34
2016-12-23T00:42:15.618Z,25.14
2016-12-23T00:43:15.623Z,25.35
2016-12-23T00:44:15.323Z,25.14
2016-12-23T00:45:15.639Z,25.34
2016-12-23T00:46:15.695Z,25.25
2016-12-23T00:47:15.705Z,25.35
2016-12-23T00:48:15.398Z,25.35
2016-12-23T00:49:15.665Z,25.15
2016-12-23T00:50:15.362Z,25.15
2016-12-23T00:51:15.366Z,25.25
2016-12-23T00:52:15.685Z,24.86
2016-12-23T00:53:15.690Z,24.95
2016-12-23T00:54:15.384Z,24.96
2016-12-23T00:55:15.705Z,25.15
2016-12-23T00:56:15.399Z,24.96
2016-12-23T00:57:15.769Z,24.86
2016-12-23T00:58:15.725Z,25.05
2016-12-23T00:59:15.620Z,24.96
2016-12-23T01:00:15.737Z,24.95
2016-12-23T01:01:15.801Z,24.95
2016-12-23T01:02:15.440Z,24.96
2016-12-23T01:03:15.496Z,24.86
2016-12-23T01:04:15.769Z,24.96
2016-12-23T01:05:15.772Z,25.04
2016-12-23T01:06:15.780Z,25.24
2016-12-23T01:07:15.787Z,25.15
2016-12-23T01:08:15.793Z,24.96
2016-12-23T01:09:15.848Z,25.25
2016-12-23T01:10:16.308Z,24.96
2016-12-23T01:11:15.814Z,24.96
2016-12-23T01:12:15.658Z,25.04
2016-12-23T01:13:15.563Z,25.24
2016-12-23T01:14:15.569Z,24.85
2016-12-23T01:15:15.529Z,24.85
2016-12-23T01:16:15.582Z,25.34
2016-12-23T01:17:15.852Z,25.24
2016-12-23T01:18:15.597Z,25.14
2016-12-23T01:19:15.654Z,25.14
2016-12-23T01:20:15.874Z,25.14
2016-12-23T01:21:16.216Z,24.85
2016-12-23T01:22:15.622Z,24.96
2016-12-23T01:23:15.944Z,24.96
2016-12-23T01:24:15.897Z,24.95
2016-12-23T01:25:15.694Z,25.24
2016-12-23T01:26:15.910Z,25.25
2016-12-23T01:27:15.918Z,25.34
2016-12-23T01:29:15.981Z,25.14
2016-12-23T01:30:15.677Z,25.34
2016-12-23T01:31:15.632Z,25.04
2016-12-23T01:32:17.001Z,24.95
2016-12-23T01:33:15.955Z,24.95
2016-12-23T01:34:16.217Z,25.04
2016-12-23T01:35:15.977Z,25.24
2016-12-23T01:36:15.716Z,24.85
2016-12-23T01:37:15.983Z,25.04
2016-12-23T01:38:15.677Z,24.85
2016-12-23T01:39:16.045Z,24.95
2016-12-23T01:40:16.005Z,25.04
2016-12-23T01:41:15.698Z,25.05
2016-12-23T01:42:15.703Z,25.14
2016-12-23T01:43:17.176Z,25.04
2016-12-23T01:44:15.767Z,25.04
2016-12-23T01:45:16.535Z,25.04
2016-12-23T01:46:15.731Z,25.04
2016-12-23T01:47:15.733Z,25.05
2016-12-23T01:48:15.743Z,24.66
2016-12-23T01:49:16.111Z,24.95
2016-12-23T01:50:16.070Z,25.04
2016-12-23T01:51:16.126Z,24.96
2016-12-23T01:52:15.768Z,24.96
2016-12-23T01:53:15.775Z,24.96
2016-12-23T01:54:15.830Z,24.95
2016-12-23T01:55:16.101Z,24.95
2016-12-23T01:56:16.905Z,24.86
2016-12-23T01:57:15.802Z,24.77
2016-12-23T01:58:15.858Z,24.76
2016-12-23T01:59:16.375Z,24.86
2016-12-23T02:00:15.870Z,24.96
2016-12-23T02:01:16.242Z,24.96
2016-12-23T02:02:16.245Z,24.76
2016-12-23T02:03:16.154Z,24.96
2016-12-23T02:04:16.456Z,24.95
2016-12-23T02:05:17.145Z,24.86
2016-12-23T02:06:16.273Z,24.85
2016-12-23T02:07:16.987Z,24.66
2016-12-23T02:08:16.235Z,24.86
2016-12-23T02:09:15.929Z,24.56
2016-12-23T02:10:16.551Z,24.96
2016-12-23T02:11:15.893Z,24.67
2016-12-23T02:12:15.896Z,24.85
2016-12-23T02:13:16.219Z,24.66
2016-12-23T02:14:16.334Z,24.67
2016-12-23T02:15:16.281Z,24.48
2016-12-23T02:16:16.289Z,24.48
2016-12-23T02:17:16.295Z,24.77
2016-12-23T02:18:15.938Z,24.85
2016-12-23T02:19:15.994Z,24.67
2016-12-23T02:20:16.313Z,24.67
2016-12-23T02:21:15.958Z,24.57
2016-12-23T02:22:16.329Z,24.66
2016-12-23T02:23:16.020Z,24.67
2016-12-23T02:24:16.294Z,24.66
2016-12-23T02:25:16.497Z,24.77
2016-12-23T02:26:16.305Z,24.66
2016-12-23T02:27:16.359Z,24.77
2016-12-23T02:28:16.318Z,24.67
2016-12-23T02:29:16.323Z,24.46
2016-12-23T02:30:16.328Z,24.57
2016-12-23T02:31:16.387Z,24.56
2016-12-23T02:32:16.078Z,24.66
2016-12-23T02:33:16.037Z,24.66
2016-12-23T02:34:16.045Z,24.67
2016-12-23T02:35:16.049Z,24.56
2016-12-23T02:36:16.608Z,24.66
2016-12-23T02:37:16.112Z,24.77
2016-12-23T02:38:16.380Z,24.76
2016-12-23T02:39:16.438Z,24.48
2016-12-23T02:40:16.396Z,24.66
2016-12-23T02:41:16.091Z,24.57
2016-12-23T02:42:16.409Z,24.66
2016-12-23T02:43:16.104Z,24.57
2016-12-23T02:44:16.423Z,24.67
2016-12-23T02:45:16.477Z,24.66
2016-12-23T02:46:16.433Z,24.56
2016-12-23T02:47:16.880Z,24.67
2016-12-23T02:48:16.446Z,24.66
2016-12-23T02:49:16.489Z,24.57
2016-12-23T02:50:16.179Z,24.46
2016-12-23T02:51:16.154Z,24.57
2016-12-23T02:52:16.473Z,24.66
2016-12-23T02:53:16.480Z,24.56
2016-12-23T02:54:16.486Z,24.57
2016-12-23T02:55:16.491Z,24.57
2016-12-23T02:56:16.237Z,24.57
2016-12-23T02:57:16.503Z,24.56
2016-12-23T02:58:17.149Z,24.48
2016-12-23T02:59:16.518Z,24.76
2016-12-23T03:00:16.861Z,24.57
2016-12-23T03:01:16.222Z,24.77
2016-12-23T03:02:16.223Z,24.67
2016-12-23T03:03:16.230Z,24.76
2016-12-23T03:04:16.601Z,24.67
2016-12-23T03:05:16.556Z,24.67
2016-12-23T03:06:16.564Z,24.76
2016-12-23T03:07:16.309Z,24.57
2016-12-23T03:08:16.365Z,24.67
2016-12-23T03:09:16.322Z,24.46
2016-12-23T03:10:16.326Z,24.66
2016-12-23T03:11:17.397Z,24.57
2016-12-23T03:12:16.601Z,24.56
2016-12-23T03:13:16.607Z,24.67
2016-12-23T03:14:16.353Z,24.67
2016-12-23T03:15:16.623Z,24.46
2016-12-23T03:16:16.314Z,24.57
2016-12-23T03:17:16.320Z,24.48
2016-12-23T03:18:16.641Z,24.48
2016-12-23T03:19:16.747Z,24.48
2016-12-23T03:20:16.654Z,24.27
2016-12-23T03:21:16.446Z,24.38
2016-12-23T03:22:17.815Z,24.28
2016-12-23T03:23:16.413Z,24.48
2016-12-23T03:24:16.416Z,24.56
2016-12-23T03:25:16.687Z,24.67
2016-12-23T03:26:16.692Z,24.46
2016-12-23T03:27:16.700Z,24.67
2016-12-23T03:28:16.707Z,24.38
2016-12-23T03:29:16.401Z,24.57
2016-12-23T03:30:16.407Z,24.66
2016-12-23T03:31:16.726Z,24.37
2016-12-23T03:32:16.782Z,24.56
2016-12-23T03:33:16.839Z,24.66
2016-12-23T03:34:16.440Z,24.56
2016-12-23T03:35:16.752Z,24.46
2016-12-23T03:36:16.449Z,24.56
2016-12-23T03:37:16.455Z,24.67
2016-12-23T03:38:16.825Z,24.77
2016-12-23T03:39:16.465Z,24.67
2016-12-23T03:40:16.471Z,24.66
2016-12-23T03:41:16.790Z,24.56
2016-12-23T03:42:17.202Z,24.56
2016-12-23T03:43:16.805Z,24.57
2016-12-23T03:44:16.499Z,24.66
2016-12-23T03:45:16.507Z,24.56
2016-12-23T03:46:16.824Z,24.66
2016-12-23T03:47:16.571Z,24.38
2016-12-23T03:48:16.838Z,24.66
2016-12-23T03:49:16.846Z,24.76
2016-12-23T03:50:16.951Z,24.66
2016-12-23T03:51:16.596Z,24.56
2016-12-23T03:52:16.863Z,24.67
2016-12-23T03:53:17.520Z,24.66
2016-12-23T03:54:16.928Z,24.66
2016-12-23T03:55:16.938Z,24.66
2016-12-23T03:56:16.890Z,24.56
2016-12-23T03:57:16.897Z,24.66
2016-12-23T03:58:16.951Z,24.56
2016-12-23T03:59:16.597Z,24.66
2016-12-23T04:00:16.917Z,24.56
2016-12-23T04:01:16.922Z,24.66
2016-12-23T04:02:17.430Z,24.66
2016-12-23T04:03:16.987Z,24.66
2016-12-23T04:04:17.727Z,24.56
2016-12-23T04:05:16.687Z,24.56
2016-12-23T04:06:16.956Z,24.56
2016-12-23T04:07:17.017Z,24.66
2016-12-23T04:08:16.652Z,24.56
2016-12-23T04:09:16.662Z,24.46
2016-12-23T04:10:16.717Z,24.66
2016-12-23T04:11:16.987Z,24.27
2016-12-23T04:12:17.044Z,24.66
2016-12-23T04:13:16.690Z,24.17
2016-12-23T04:14:16.695Z,24.66
2016-12-23T04:15:18.063Z,24.66
2016-12-23T04:16:17.123Z,24.66
2016-12-23T04:17:17.172Z,24.66
2016-12-23T04:18:17.034Z,24.56
2016-12-23T04:19:17.038Z,24.66
2016-12-23T04:20:17.046Z,24.38
2016-12-23T04:21:17.106Z,24.56
2016-12-23T04:22:17.059Z,24.37
2016-12-23T04:23:17.064Z,24.66
2016-12-23T04:24:17.120Z,24.46
2016-12-23T04:25:17.079Z,24.56
2016-12-23T04:26:18.183Z,24.17
2016-12-23T04:27:17.193Z,24.66
2016-12-23T04:28:18.548Z,24.66
2016-12-23T04:29:17.104Z,24.56
2016-12-23T04:30:17.112Z,24.37
2016-12-23T04:31:17.117Z,24.56
2016-12-23T04:32:16.860Z,24.37
2016-12-23T04:33:16.819Z,24.56
2016-12-23T04:34:17.133Z,24.66
2016-12-23T04:35:16.830Z,24.56
2016-12-23T04:36:17.150Z,24.38
2016-12-23T04:37:16.845Z,24.56
2016-12-23T04:38:17.163Z,24.56
2016-12-23T04:39:17.357Z,24.17
2016-12-23T04:40:16.862Z,24.56
2016-12-23T04:41:17.182Z,24.27
2016-12-23T04:42:17.189Z,24.56
2016-12-23T04:43:16.932Z,24.56
2016-12-23T04:44:17.252Z,24.66
2016-12-23T04:45:16.993Z,24.56
2016-12-23T04:46:17.215Z,24.56
2016-12-23T04:47:17.221Z,24.09
2016-12-23T04:48:17.229Z,24.56
2016-12-23T04:49:16.920Z,24.56
2016-12-23T04:50:18.043Z,24.46
2016-12-23T04:51:16.933Z,24.46
2016-12-23T04:52:16.939Z,24.46
2016-12-23T04:53:17.265Z,24.27
2016-12-23T04:54:17.003Z,24.56
2016-12-23T04:55:17.327Z,24.66
2016-12-23T04:56:17.277Z,24.46
2016-12-23T04:57:17.284Z,24.46
2016-12-23T04:58:16.978Z,24.37
2016-12-23T04:59:17.296Z,24.27
2016-12-23T05:00:17.189Z,24.27
2016-12-23T05:01:17.802Z,24.27
2016-12-23T05:02:17.368Z,24.27
2016-12-23T05:03:17.009Z,24.17
2016-12-23T05:04:17.380Z,24.37
2016-12-23T05:05:17.022Z,24.56
2016-12-23T05:06:17.343Z,24.56
2016-12-23T05:07:17.348Z,24.46
2016-12-23T05:08:17.143Z,24.37
2016-12-23T05:09:17.412Z,24.66
2016-12-23T05:10:17.368Z,24.66
2016-12-23T05:11:17.070Z,24.46
2016-12-23T05:12:17.069Z,24.46
2016-12-23T05:13:17.391Z,24.46
2016-12-23T05:14:17.080Z,24.56
2016-12-23T05:15:17.139Z,24.56
2016-12-23T05:16:17.096Z,24.37
2016-12-23T05:17:17.415Z,24.56
2016-12-23T05:18:17.112Z,24.46
2016-12-23T05:19:17.164Z,24.17
2016-12-23T05:20:17.121Z,24.17
2016-12-23T05:21:17.440Z,24.17
2016-12-23T05:22:17.446Z,24.27
2016-12-23T05:23:18.430Z,24.37
2016-12-23T05:24:17.462Z,24.37
2016-12-23T05:25:17.151Z,24.17
2016-12-23T05:26:17.520Z,24.46
2016-12-23T05:27:17.528Z,24.56
2016-12-23T05:28:17.485Z,24.27
2016-12-23T05:29:17.491Z,24.28
2016-12-23T05:30:17.236Z,24.37
2016-12-23T05:31:17.194Z,24.37
2016-12-23T05:32:17.248Z,24.37
2016-12-23T05:33:17.204Z,24.27
2016-12-23T05:34:17.209Z,24.17
2016-12-23T05:35:17.219Z,24.17
2016-12-23T05:36:17.222Z,24.56
2016-12-23T05:37:17.543Z,24.56
2016-12-23T05:38:17.548Z,24.56
2016-12-23T05:39:17.555Z,24.56
2016-12-23T05:40:17.562Z,24.27
2016-12-23T05:41:17.571Z,24.66
2016-12-23T05:42:17.575Z,24.56
2016-12-23T05:43:17.617Z,24.27
2016-12-23T05:44:17.275Z,24.56
2016-12-23T05:45:17.281Z,24.56
2016-12-23T05:46:17.338Z,24.46
2016-12-23T05:47:17.294Z,24.37
2016-12-23T05:48:17.298Z,24.17
2016-12-23T05:49:17.620Z,24.27
2016-12-23T05:50:17.312Z,24.27
2016-12-23T05:51:17.636Z,24.27
2016-12-23T05:52:17.325Z,24.46
2016-12-23T05:53:17.647Z,24.56
2016-12-23T05:54:18.252Z,24.46
2016-12-23T05:55:17.658Z,24.66
2016-12-23T05:56:17.813Z,24.27
2016-12-23T05:57:17.359Z,24.46
2016-12-23T05:59:17.421Z,24.27
2016-12-23T06:00:17.691Z,24.37
2016-12-23T06:01:17.695Z,24.27
2016-12-23T06:02:17.755Z,24.56
2016-12-23T06:03:17.709Z,24.66
2016-12-23T06:04:17.714Z,24.37
2016-12-23T06:05:18.772Z,24.46
2016-12-23T06:06:17.730Z,24.46
2016-12-23T06:07:18.224Z,24.37
2016-12-23T06:08:17.479Z,24.46
2016-12-23T06:09:17.779Z,24.46
2016-12-23T06:10:17.855Z,24.27
2016-12-23T06:11:17.459Z,24.46
2016-12-23T06:12:17.820Z,24.46
2016-12-23T06:13:17.774Z,24.27
2016-12-23T06:14:17.828Z,24.46
2016-12-23T06:15:17.472Z,24.46
2016-12-23T06:16:17.481Z,24.46
2016-12-23T06:17:17.851Z,24.56
2016-12-23T06:18:18.504Z,24.56
2016-12-23T06:19:17.888Z,24.56
2016-12-23T06:20:17.552Z,24.56
2016-12-23T06:21:17.813Z,24.46
2016-12-23T06:22:17.834Z,24.46
2016-12-23T06:23:17.524Z,24.37
2016-12-23T06:24:17.585Z,24.56
2016-12-23T06:25:17.898Z,24.46
2016-12-23T06:26:17.594Z,24.46
2016-12-23T06:27:17.650Z,24.46
2016-12-23T06:28:17.870Z,24.56
2016-12-23T06:29:17.563Z,24.37
2016-12-23T06:30:17.934Z,24.46
2016-12-23T06:31:17.939Z,24.56
2016-12-23T06:32:17.893Z,24.37
2016-12-23T06:33:17.914Z,24.17
2016-12-23T06:34:17.910Z,24.37
2016-12-23T06:35:17.914Z,24.37
2016-12-23T06:36:17.607Z,24.17
2016-12-23T06:37:17.928Z,24.37
2016-12-23T06:38:17.982Z,24.27
2016-12-23T06:39:17.990Z,24.46
2016-12-23T06:40:17.946Z,24.27
2016-12-23T06:41:18.007Z,24.27
2016-12-23T06:42:17.695Z,24.27
2016-12-23T06:43:17.654Z,24.27
2016-12-23T06:44:17.971Z,24.37
2016-12-23T06:45:17.666Z,24.27
2016-12-23T06:46:17.670Z,24.27
2016-12-23T06:47:17.988Z,24.46
2016-12-23T06:48:17.998Z,24.27
2016-12-23T06:49:17.890Z,24.27
2016-12-23T06:50:17.696Z,24.27
2016-12-23T06:51:17.804Z,24.46
2016-12-23T06:52:18.025Z,24.37
2016-12-23T06:53:17.766Z,24.27
2016-12-23T06:54:18.038Z,24.17
2016-12-23T06:55:18.043Z,24.27
2016-12-23T06:56:18.101Z,24.17
2016-12-23T06:57:18.156Z,24.17
2016-12-23T06:58:18.111Z,24.46
2016-12-23T06:59:18.068Z,24.27
2016-12-23T07:00:18.514Z,24.37
2016-12-23T07:01:18.131Z,24.37
2016-12-23T07:02:18.188Z,24.37
2016-12-23T07:03:18.093Z,24.27
2016-12-23T07:04:18.103Z,24.37
2016-12-23T07:05:18.163Z,24.37
2016-12-23T07:06:17.800Z,24.27
2016-12-23T07:07:18.118Z,24.27
2016-12-23T07:08:18.127Z,24.17
2016-12-23T07:09:17.819Z,24.27
2016-12-23T07:10:18.193Z,24.17
2016-12-23T07:11:18.843Z,24.46
2016-12-23T07:12:17.839Z,24.37
2016-12-23T07:13:17.845Z,24.46
2016-12-23T07:14:18.163Z,24.27
2016-12-23T07:15:18.172Z,24.17
2016-12-23T07:16:18.180Z,24.27
2016-12-23T07:17:17.920Z,24.17
2016-12-23T07:18:17.874Z,24.27
2016-12-23T07:19:17.884Z,24.17
2016-12-23T07:20:18.203Z,24.27
2016-12-23T07:21:17.897Z,24.17
2016-12-23T07:22:19.002Z,24.17
2016-12-23T07:23:18.273Z,24.17
2016-12-23T07:24:17.965Z,24.27
2016-12-23T07:25:17.971Z,24.46
2016-12-23T07:26:18.240Z,24.37
2016-12-23T07:27:17.934Z,24.17
2016-12-23T07:28:17.937Z,24.27
2016-12-23T07:29:17.948Z,24.37
2016-12-23T07:30:18.317Z,23.98
2016-12-23T07:31:18.323Z,24.17
2016-12-23T07:32:17.964Z,23.98
2016-12-23T07:33:19.453Z,24.18
2016-12-23T07:34:18.292Z,23.6
2016-12-23T07:35:18.799Z,23.7
2016-12-23T07:36:18.352Z,23.23
2016-12-23T07:37:18.309Z,23.42
2016-12-23T07:38:18.316Z,22.94
2016-12-23T07:39:18.374Z,23.05
2016-12-23T07:40:18.067Z,22.27
2016-12-23T07:41:18.336Z,22.37
2016-12-23T07:42:18.079Z,22.08
2016-12-23T07:43:18.085Z,22.08
2016-12-23T07:44:18.455Z,22.09
2016-12-23T07:45:18.411Z,22.38
2016-12-23T07:46:19.418Z,21.99
2016-12-23T07:47:18.063Z,21.7
2016-12-23T07:48:18.436Z,21.71
2016-12-23T07:49:18.438Z,21.33
2016-12-23T07:50:18.394Z,21.51
2016-12-23T07:51:18.085Z,21.23
2016-12-23T07:52:18.146Z,20.94
2016-12-23T07:53:18.149Z,20.84
2016-12-23T07:54:18.421Z,20.95
2016-12-23T07:55:18.476Z,21.04
2016-12-23T07:56:18.430Z,20.95
2016-12-23T07:57:19.539Z,20.56
2016-12-23T07:58:18.446Z,20.56
2016-12-23T07:59:18.452Z,20.65
2016-12-23T08:00:18.508Z,20.56
2016-12-23T08:01:18.150Z,20.75
2016-12-23T08:02:18.208Z,20.75
2016-12-23T08:03:18.165Z,20.76
2016-12-23T08:04:18.537Z,20.75
2016-12-23T08:05:18.497Z,20.86
2016-12-23T08:06:18.236Z,20.57
2016-12-23T08:07:18.243Z,20.76
2016-12-23T08:08:19.386Z,20.67
2016-12-23T08:09:18.568Z,20.85
2016-12-23T08:10:18.526Z,20.65
2016-12-23T08:11:18.535Z,20.85
2016-12-23T08:12:18.542Z,20.47
2016-12-23T08:13:18.233Z,20.67
2016-12-23T08:14:18.555Z,20.67
2016-12-23T08:15:18.562Z,20.57
2016-12-23T08:16:18.566Z,20.67
2016-12-23T08:17:18.264Z,20.57
2016-12-23T08:18:18.583Z,20.67
2016-12-23T08:19:18.326Z,20.47
2016-12-23T08:20:18.285Z,20.37
2016-12-23T08:21:18.588Z,20.47
2016-12-23T08:22:18.659Z,20.57
2016-12-23T08:23:18.615Z,20.47
2016-12-23T08:24:18.621Z,20.47
2016-12-23T08:25:18.680Z,20.67
2016-12-23T08:26:18.639Z,20.67
2016-12-23T08:27:18.692Z,20.76
2016-12-23T08:28:18.601Z,20.67
2016-12-23T08:29:18.656Z,20.28
2016-12-23T08:30:18.716Z,20.67
2016-12-23T08:31:18.408Z,20.47
2016-12-23T08:32:18.729Z,20.76
2016-12-23T08:33:18.733Z,20.76
2016-12-23T08:34:18.692Z,20.57
2016-12-23T08:35:18.700Z,20.57
2016-12-23T08:36:18.704Z,20.47
2016-12-23T08:37:18.811Z,20.76
2016-12-23T08:38:18.720Z,20.57
2016-12-23T08:39:19.427Z,20.76
2016-12-23T08:40:18.418Z,20.67
2016-12-23T08:41:18.779Z,20.67
2016-12-23T08:42:18.797Z,20.47
2016-12-23T08:43:18.755Z,20.76
2016-12-23T08:44:18.761Z,20.57
2016-12-23T08:45:18.455Z,20.57
2016-12-23T08:46:18.513Z,20.47
2016-12-23T08:47:18.833Z,20.86
2016-12-23T08:48:18.577Z,20.86
2016-12-23T08:49:19.098Z,20.96
2016-12-23T08:50:19.805Z,20.47
2016-12-23T08:51:18.549Z,20.37
2016-12-23T08:52:19.254Z,20.47
2016-12-23T08:53:18.831Z,20.47
2016-12-23T08:54:18.832Z,20.47
2016-12-23T08:55:18.843Z,20.47
2016-12-23T08:56:18.846Z,20.67
2016-12-23T08:57:18.541Z,20.47
2016-12-23T08:58:18.910Z,20.37
2016-12-23T08:59:18.868Z,20.47
2016-12-23T09:00:18.925Z,20.37
2016-12-23T09:01:19.682Z,20.47
2016-12-23T09:02:18.889Z,20.47
2016-12-23T09:03:19.496Z,20.76
2016-12-23T09:04:18.590Z,20.47
2016-12-23T09:05:18.646Z,20.47
2016-12-23T09:06:18.918Z,20.58
2016-12-23T09:07:18.927Z,20.37
2016-12-23T09:08:18.983Z,20.47
2016-12-23T09:09:18.992Z,20.47
2016-12-23T09:10:18.947Z,20.47
2016-12-23T09:11:18.642Z,20.86
2016-12-23T09:12:19.931Z,20.47
2016-12-23T09:13:18.967Z,20.67
2016-12-23T09:14:19.827Z,20.77
2016-12-23T09:15:18.980Z,20.68
2016-12-23T09:16:18.986Z,20.47
2016-12-23T09:17:18.732Z,20.47
2016-12-23T09:18:19.004Z,20.57
2016-12-23T09:19:18.996Z,20.68
2016-12-23T09:20:18.703Z,20.68
2016-12-23T09:21:18.812Z,20.67
2016-12-23T09:22:19.081Z,20.57
2016-12-23T09:23:18.726Z,20.37
2016-12-23T09:24:19.050Z,20.67
2016-12-23T09:25:19.104Z,20.47
2016-12-23T09:26:18.748Z,20.37
2016-12-23T09:27:19.069Z,20.47
2016-12-23T09:28:18.761Z,20.67
2016-12-23T09:29:19.131Z,20.57
2016-12-23T09:30:18.776Z,20.77
2016-12-23T09:31:19.096Z,20.58
2016-12-23T09:32:19.441Z,20.77
2016-12-23T09:33:19.112Z,20.47
2016-12-23T09:34:19.106Z,20.39
2016-12-23T09:35:19.127Z,20.47
2016-12-23T09:36:19.235Z,20.48
2016-12-23T09:37:19.191Z,20.67
2016-12-23T09:38:19.148Z,20.76
2016-12-23T09:39:19.207Z,20.76
2016-12-23T09:40:18.851Z,20.47
2016-12-23T09:41:19.169Z,20.47
2016-12-23T09:42:18.913Z,20.76
2016-12-23T09:43:20.137Z,20.47
2016-12-23T09:44:19.190Z,20.37
2016-12-23T09:45:19.435Z,20.47
2016-12-23T09:46:19.207Z,20.76
2016-12-23T09:47:19.222Z,20.37
2016-12-23T09:48:18.907Z,20.47
2016-12-23T09:49:18.965Z,20.47
2016-12-23T09:50:18.925Z,20.87
2016-12-23T09:51:19.241Z,20.76
2016-12-23T09:52:19.298Z,20.67
2016-12-23T09:53:19.044Z,20.67
2016-12-23T09:54:20.003Z,20.68
2016-12-23T09:55:19.320Z,20.67
2016-12-23T09:56:19.731Z,20.68
2016-12-23T09:57:19.286Z,20.58
2016-12-23T09:58:33.859Z,20.77
2016-12-23T09:59:19.332Z,20.77
2016-12-23T10:00:19.359Z,20.68
2016-12-23T10:01:19.002Z,20.47
2016-12-23T10:02:19.109Z,20.76
2016-12-23T10:03:19.329Z,20.76
2016-12-23T10:04:19.025Z,20.57
2016-12-23T10:05:20.196Z,20.47
2016-12-23T10:06:19.040Z,20.77
2016-12-23T10:07:19.959Z,20.37
2016-12-23T10:08:19.058Z,20.47
2016-12-23T10:09:19.426Z,20.48
2016-12-23T10:10:19.432Z,20.37
2016-12-23T10:11:19.126Z,20.48
2016-12-23T10:12:19.448Z,20.47
2016-12-23T10:13:19.088Z,20.68
2016-12-23T10:14:19.463Z,20.68
2016-12-23T10:15:19.971Z,20.77
2016-12-23T10:16:19.113Z,20.47
2016-12-23T10:17:19.433Z,20.68
2016-12-23T10:18:20.231Z,20.48
2016-12-23T10:19:19.499Z,20.39
2016-12-23T10:20:19.458Z,20.48
2016-12-23T10:21:19.461Z,20.58
2016-12-23T10:22:19.258Z,20.68
2016-12-23T10:23:19.530Z,20.48
2016-12-23T10:24:19.172Z,20.29
2016-12-23T10:25:19.492Z,20.39
2016-12-23T10:26:19.236Z,20.29
2016-12-23T10:27:19.195Z,20.48
2016-12-23T10:28:19.514Z,20.68
2016-12-23T10:29:20.427Z,20.48
2016-12-23T10:30:19.533Z,20.68
2016-12-23T10:31:19.227Z,20.58
2016-12-23T10:32:19.234Z,20.39
2016-12-23T10:33:19.240Z,20.48
2016-12-23T10:34:19.613Z,20.39
2016-12-23T10:35:19.619Z,20.39
2016-12-23T10:36:19.574Z,20.77
2016-12-23T10:37:19.271Z,20.48
2016-12-23T10:38:19.325Z,20.68
2016-12-23T10:39:19.285Z,20.48
2016-12-23T10:40:20.706Z,20.68
2016-12-23T10:41:19.348Z,20.29
2016-12-23T10:42:19.620Z,20.58
2016-12-23T10:43:19.316Z,20.68
2016-12-23T10:44:19.321Z,20.77
2016-12-23T10:45:19.378Z,20.48
2016-12-23T10:46:19.338Z,20.39
2016-12-23T10:47:19.657Z,20.68
2016-12-23T10:48:19.401Z,20.58
2016-12-23T10:49:19.462Z,20.68
2016-12-23T10:50:19.416Z,20.58
2016-12-23T10:51:19.685Z,20.48
2016-12-23T10:52:19.743Z,20.58
2016-12-23T10:53:19.388Z,20.87
2016-12-23T10:54:19.710Z,20.48
2016-12-23T10:55:19.718Z,20.58
2016-12-23T10:56:19.462Z,20.87
2016-12-23T10:57:19.777Z,20.77
2016-12-23T10:58:19.836Z,20.77
2016-12-23T10:59:19.486Z,20.58
2016-12-23T11:00:19.892Z,20.29
2016-12-23T11:01:19.757Z,20.58
2016-12-23T11:02:19.919Z,20.68
2016-12-23T11:03:19.771Z,20.68
2016-12-23T11:04:19.832Z,20.77
2016-12-23T11:05:19.527Z,20.58
2016-12-23T11:06:19.484Z,20.77
2016-12-23T11:07:19.855Z,20.68
2016-12-23T11:08:19.495Z,20.48
2016-12-23T11:09:19.818Z,20.58
2016-12-23T11:10:19.512Z,20.68
2016-12-23T11:11:20.685Z,20.77
2016-12-23T11:12:19.579Z,20.39
2016-12-23T11:13:19.685Z,20.68
2016-12-23T11:14:19.594Z,20.68
2016-12-23T11:15:19.915Z,20.68
2016-12-23T11:16:19.657Z,20.58
2016-12-23T11:17:19.569Z,20.68
2016-12-23T11:18:19.886Z,20.39
2016-12-23T11:19:19.881Z,20.86
2016-12-23T11:20:19.589Z,20.87
2016-12-23T11:21:19.909Z,20.87
2016-12-23T11:22:19.605Z,20.86
2016-12-23T11:23:19.922Z,20.86
2016-12-23T11:24:20.132Z,20.86
2016-12-23T11:25:19.939Z,20.76
2016-12-23T11:26:19.632Z,20.57
2016-12-23T11:27:19.951Z,20.39
2016-12-23T11:28:19.961Z,20.58
2016-12-23T11:29:20.021Z,20.77
2016-12-23T11:30:19.972Z,20.68
2016-12-23T11:31:19.983Z,20.77
2016-12-23T11:32:19.726Z,20.58
2016-12-23T11:33:19.686Z,20.77
2016-12-23T11:34:19.742Z,20.57
2016-12-23T11:35:20.815Z,20.57
2016-12-23T11:36:20.019Z,20.57
2016-12-23T11:37:20.027Z,20.57
2016-12-23T11:38:20.035Z,20.76
2016-12-23T11:39:20.042Z,20.76
2016-12-23T11:40:20.048Z,20.76
2016-12-23T11:41:20.159Z,21.06
2016-12-23T11:42:20.063Z,20.87
2016-12-23T11:43:20.073Z,20.87
2016-12-23T11:44:19.768Z,20.68
2016-12-23T11:45:19.774Z,20.97
2016-12-23T11:46:19.785Z,20.77
2016-12-23T11:47:20.103Z,20.57
2016-12-23T11:48:19.896Z,20.87
2016-12-23T11:49:20.118Z,20.58
2016-12-23T11:50:20.176Z,20.87
2016-12-23T11:51:19.821Z,20.86
2016-12-23T11:52:19.825Z,20.86
2016-12-23T11:53:19.834Z,20.48
2016-12-23T11:54:20.159Z,20.48
2016-12-23T11:55:19.853Z,20.58
2016-12-23T11:56:19.958Z,20.87
2016-12-23T11:57:19.867Z,20.77
2016-12-23T11:58:19.877Z,20.76
2016-12-23T11:59:20.192Z,20.87
2016-12-23T12:00:19.885Z,20.58
2016-12-23T12:01:20.211Z,21.05
2016-12-23T12:02:20.263Z,20.57
2016-12-23T12:03:20.474Z,20.57
2016-12-23T12:04:20.228Z,20.86
2016-12-23T12:05:19.925Z,20.86
2016-12-23T12:06:20.247Z,20.77
2016-12-23T12:07:19.937Z,20.77
2016-12-23T12:08:20.760Z,20.76
2016-12-23T12:09:19.954Z,20.86
2016-12-23T12:10:20.012Z,20.48
2016-12-23T12:11:20.020Z,20.86
2016-12-23T12:12:20.287Z,20.67
2016-12-23T12:13:20.297Z,20.67
2016-12-23T12:14:19.988Z,20.87
2016-12-23T12:15:20.310Z,20.76
2016-12-23T12:16:20.006Z,20.58
2016-12-23T12:17:20.063Z,20.48
2016-12-23T12:18:20.021Z,20.47
2016-12-23T12:19:20.392Z,20.47
2016-12-23T12:20:20.398Z,20.67
2016-12-23T12:21:20.358Z,20.87
2016-12-23T12:22:20.411Z,20.58
2016-12-23T12:23:20.056Z,20.67
2016-12-23T12:24:20.116Z,21.15
2016-12-23T12:25:20.387Z,20.86
2016-12-23T12:26:20.411Z,21.25
2016-12-23T12:27:20.087Z,21.15
2016-12-23T12:28:20.757Z,20.96
2016-12-23T12:29:20.100Z,20.57
2016-12-23T12:30:20.109Z,20.48
2016-12-23T12:31:20.427Z,20.86
2016-12-23T12:32:20.490Z,21.05
2016-12-23T12:33:20.132Z,21.05
2016-12-23T12:34:20.550Z,21.05
2016-12-23T12:35:20.459Z,20.96
2016-12-23T12:36:20.514Z,21.05
2016-12-23T12:37:20.160Z,20.57
2016-12-23T12:38:20.485Z,20.57
2016-12-23T12:39:21.241Z,20.67
2016-12-23T12:40:20.183Z,20.57
2016-12-23T12:41:20.540Z,20.68
2016-12-23T12:42:20.247Z,20.76
2016-12-23T12:43:20.254Z,20.57
2016-12-23T12:44:20.525Z,21.05
2016-12-23T12:45:20.579Z,20.96
2016-12-23T12:46:20.230Z,21.05
2016-12-23T12:47:20.547Z,21.15
2016-12-23T12:48:20.556Z,20.96
2016-12-23T12:49:20.251Z,20.67
2016-12-23T12:50:21.680Z,20.86
2016-12-23T12:51:20.631Z,21.15
2016-12-23T12:52:21.135Z,20.86
2016-12-23T12:53:20.593Z,21.15
2016-12-23T12:54:20.286Z,21.05